Time;durP1;ratioP1;P1;durP2;ratioP2;P2;SDS_P1;SDS_P2;PMS_P1;PMS_P2;Temp;Humidity;BMP_temperature;BMP_pressure;BME280_temperature;BME280_humidity;BME280_pressure;Samples;Min_cycle;Max_cycle;Signal;HPM_P1;HPM_P2
2021/12/01 00:00:52;;;;;;;56.58;18.92;;;9.10;99.90;;;;;;5090352;28;20048;-81
2021/12/01 00:03:18;;;;;;;54.45;21.85;;;9.10;99.90;;;;;;5090750;28;20123;-81
2021/12/01 00:05:44;;;;;;;55.35;21.55;;;9.20;99.90;;;;;;5090309;28;20063;-81
2021/12/01 00:08:10;;;;;;;40.80;19.95;;;9.10;99.90;;;;;;5073874;28;20488;-81
2021/12/01 00:10:36;;;;;;;45.70;21.10;;;9.20;99.90;;;;;;5091755;28;20085;-82
2021/12/01 00:13:05;;;;;;;47.00;22.45;;;9.30;99.90;;;;;;5090676;28;20081;-81
2021/12/01 00:15:31;;;;;;;47.28;23.48;;;9.30;99.90;;;;;;5090722;28;20059;-81
2021/12/01 00:17:57;;;;;;;53.90;23.52;;;9.30;99.90;;;;;;5090387;28;20047;-81
2021/12/01 00:20:22;;;;;;;52.33;25.65;;;9.30;99.90;;;;;;5107581;28;20419;-81
2021/12/01 00:22:48;;;;;;;62.22;27.50;;;9.40;99.90;;;;;;5073204;28;20442;-81
2021/12/01 00:25:15;;;;;;;53.45;25.27;;;9.40;99.90;;;;;;5090666;28;20083;-81
2021/12/01 00:27:46;;;;;;;56.60;29.58;;;9.50;99.90;;;;;;5056191;28;20063;-82
2021/12/01 00:30:11;;;;;;;70.20;31.25;;;9.60;99.90;;;;;;5091395;28;20500;-81
2021/12/01 00:32:37;;;;;;;63.50;31.38;;;9.60;99.90;;;;;;5090271;28;20047;-82
2021/12/01 00:35:07;;;;;;;60.47;30.08;;;9.50;99.90;;;;;;5090057;28;20098;-82
2021/12/01 00:37:32;;;;;;;56.53;30.05;;;9.50;99.90;;;;;;5091630;28;20048;-82
2021/12/01 00:39:58;;;;;;;47.85;29.67;;;9.50;99.90;;;;;;5090924;28;20104;-81
2021/12/01 00:42:24;;;;;;;60.80;32.45;;;9.60;99.90;;;;;;5073411;28;20055;-82
2021/12/01 00:44:58;;;;;;;53.03;30.27;;;9.50;99.90;;;;;;5089744;28;20051;-81
2021/12/01 00:47:31;;;;;;;54.30;31.05;;;9.50;99.90;;;;;;5090558;28;20048;-82
2021/12/01 00:49:57;;;;;;;53.75;28.27;;;9.50;99.90;;;;;;5074239;28;20052;-82
2021/12/01 00:52:23;;;;;;;57.53;31.08;;;9.50;99.90;;;;;;5090334;28;20095;-82
2021/12/01 00:54:49;;;;;;;49.22;28.60;;;9.50;99.90;;;;;;5090718;28;20400;-82
2021/12/01 00:57:15;;;;;;;51.65;29.92;;;9.60;99.90;;;;;;5090409;28;20044;-82
2021/12/01 00:59:40;;;;;;;51.25;30.88;;;9.60;99.90;;;;;;5089677;28;20052;-83
2021/12/01 01:02:07;;;;;;;53.53;32.20;;;9.60;99.90;;;;;;5090895;28;20051;-82
2021/12/01 01:04:33;;;;;;;41.72;26.77;;;9.50;99.90;;;;;;5089891;28;20048;-82
2021/12/01 01:06:59;;;;;;;53.75;29.90;;;9.60;99.90;;;;;;5089326;28;20044;-82
2021/12/01 01:09:30;;;;;;;44.33;27.77;;;9.60;99.90;;;;;;5091173;28;20127;-82
2021/12/01 01:17:36;;;;;;;;;;;9.60;99.90;;;;;;5076423;28;20130;-82
2021/12/01 01:20:04;;;;;;;48.50;26.85;;;9.60;99.90;;;;;;5089534;28;19978;-83
2021/12/01 01:22:29;;;;;;;46.63;26.35;;;9.60;99.90;;;;;;5091104;28;20056;-83
2021/12/01 01:24:55;;;;;;;42.55;27.17;;;9.60;99.90;;;;;;5089328;28;20051;-83
2021/12/01 01:27:20;;;;;;;35.75;20.42;;;9.60;99.90;;;;;;5089663;28;20084;-83
2021/12/01 01:29:46;;;;;;;44.13;24.83;;;9.60;99.90;;;;;;5090524;28;20060;-83
2021/12/01 01:32:12;;;;;;;40.55;22.83;;;9.60;99.90;;;;;;5090762;28;20048;-83
2021/12/01 01:34:38;;;;;;;37.03;24.88;;;9.80;99.90;;;;;;5089880;28;20091;-82
2021/12/01 01:37:03;;;;;;;37.42;21.42;;;9.70;99.90;;;;;;5090223;28;20051;-83
2021/12/01 01:39:29;;;;;;;37.15;23.02;;;9.80;99.90;;;;;;5089556;28;20036;-82
2021/12/01 01:41:55;;;;;;;32.83;20.77;;;9.70;99.90;;;;;;5088943;28;20428;-82
2021/12/01 01:44:21;;;;;;;37.08;20.52;;;9.70;99.90;;;;;;5089473;28;20070;-82
2021/12/01 01:46:46;;;;;;;39.17;23.40;;;9.70;99.90;;;;;;5072745;28;20044;-83
2021/12/01 01:49:19;;;;;;;36.30;20.70;;;9.40;99.90;;;;;;5089145;28;20044;-82
2021/12/01 01:51:48;;;;;;;36.58;20.35;;;9.60;99.90;;;;;;5089696;28;20083;-83
2021/12/01 01:54:14;;;;;;;25.92;17.17;;;9.70;99.90;;;;;;5072391;28;20488;-83
2021/12/01 01:56:40;;;;;;;21.80;12.55;;;9.70;99.90;;;;;;5090548;28;20044;-83
2021/12/01 01:59:06;;;;;;;22.83;14.27;;;9.80;99.90;;;;;;5090184;28;20048;-83
2021/12/01 02:01:53;;;;;;;21.58;13.98;;;9.70;99.90;;;;;;5089072;28;20044;-83
2021/12/01 02:04:19;;;;;;;26.80;16.10;;;9.70;99.90;;;;;;5089685;28;20056;-83
2021/12/01 02:06:47;;;;;;;26.15;16.90;;;9.60;99.90;;;;;;5089459;28;20392;-83
2021/12/01 02:09:13;;;;;;;27.98;17.88;;;9.70;99.90;;;;;;5072503;28;20131;-83
2021/12/01 02:11:39;;;;;;;26.52;16.90;;;9.60;99.90;;;;;;5089835;28;20139;-82
2021/12/01 02:14:05;;;;;;;31.20;17.23;;;9.50;99.90;;;;;;5058987;28;20437;-83
2021/12/01 02:16:31;;;;;;;26.35;15.50;;;9.60;99.90;;;;;;5076341;28;20039;-82
2021/12/01 02:18:56;;;;;;;13.10;8.05;;;9.70;99.90;;;;;;5093893;28;20415;-83
2021/12/01 02:21:27;;;;;;;20.15;11.70;;;9.70;99.90;;;;;;5059484;28;20488;-83
2021/12/01 02:23:55;;;;;;;19.80;12.23;;;9.80;99.90;;;;;;5092676;28;20043;-83
2021/12/01 02:26:21;;;;;;;18.10;10.57;;;9.70;99.90;;;;;;5076081;28;20459;-83
2021/12/01 02:28:49;;;;;;;18.30;11.07;;;9.70;99.90;;;;;;5059240;28;20056;-81
2021/12/01 02:31:15;;;;;;;14.68;10.07;;;9.80;99.90;;;;;;5093438;28;20476;-82
2021/12/01 02:33:41;;;;;;;13.13;8.38;;;9.70;99.90;;;;;;5092603;28;20044;-82
2021/12/01 02:36:11;;;;;;;14.20;8.75;;;10.00;99.90;;;;;;5092170;28;20052;-82
2021/12/01 02:38:37;;;;;;;10.85;7.75;;;9.80;99.90;;;;;;5092739;28;20054;-81
2021/12/01 02:41:03;;;;;;;11.93;7.65;;;9.80;99.90;;;;;;5092193;28;20490;-82
2021/12/01 02:43:30;;;;;;;11.15;7.43;;;9.90;99.90;;;;;;5092487;28;20055;-81
2021/12/01 02:45:55;;;;;;;10.93;7.43;;;9.90;99.90;;;;;;5092873;28;20492;-83
2021/12/01 02:48:23;;;;;;;11.90;7.90;;;9.90;99.90;;;;;;5075900;28;20056;-82
2021/12/01 02:50:49;;;;;;;9.63;5.90;;;9.90;99.90;;;;;;5092173;28;20062;-82
2021/12/01 02:53:15;;;;;;;9.48;6.20;;;10.00;99.90;;;;;;5074742;28;20040;-82
2021/12/01 02:55:52;;;;;;;8.40;6.20;;;9.90;99.90;;;;;;5092225;28;20059;-82
2021/12/01 02:58:18;;;;;;;9.63;6.07;;;10.00;99.90;;;;;;5091836;28;20087;-82
2021/12/01 03:00:43;;;;;;;9.48;5.75;;;10.00;99.90;;;;;;5075673;28;20087;-82
2021/12/01 03:03:10;;;;;;;10.38;7.18;;;10.10;99.90;;;;;;5092719;28;20051;-82
2021/12/01 03:05:36;;;;;;;11.45;6.88;;;10.00;99.90;;;;;;5093188;28;20105;-82
2021/12/01 03:08:01;;;;;;;10.90;6.50;;;10.00;99.90;;;;;;5074648;28;20434;-82
2021/12/01 03:10:27;;;;;;;8.90;5.65;;;10.00;99.90;;;;;;5093287;28;20051;-82
2021/12/01 03:12:53;;;;;;;8.85;6.28;;;9.90;99.90;;;;;;5091831;28;20119;-82
2021/12/01 03:15:19;;;;;;;12.50;6.30;;;10.00;99.90;;;;;;5092693;28;20043;-82
2021/12/01 03:17:44;;;;;;;5.72;4.63;;;9.90;99.90;;;;;;5092047;28;20135;-83
2021/12/01 03:20:11;;;;;;;7.95;4.80;;;10.00;99.90;;;;;;5092493;28;20128;-82
2021/12/01 03:22:36;;;;;;;6.72;5.20;;;10.00;99.90;;;;;;5091661;28;20075;-83
2021/12/01 03:25:10;;;;;;;6.97;4.63;;;10.00;99.90;;;;;;5074734;28;20082;-83
2021/12/01 03:27:36;;;;;;;7.05;4.55;;;10.10;99.90;;;;;;5092874;28;20075;-81
2021/12/01 03:30:04;;;;;;;7.25;4.78;;;10.10;99.90;;;;;;5091080;28;20048;-83
2021/12/01 03:32:29;;;;;;;8.60;4.60;;;10.00;99.90;;;;;;5092667;28;20555;-81
2021/12/01 03:34:55;;;;;;;4.75;3.65;;;10.00;99.90;;;;;;5092968;28;20127;-82
2021/12/01 03:37:20;;;;;;;5.75;3.47;;;9.90;99.90;;;;;;5091138;28;20040;-83
2021/12/01 03:39:46;;;;;;;8.48;3.97;;;10.10;99.90;;;;;;5091876;28;20044;-81
2021/12/01 03:42:12;;;;;;;6.32;3.65;;;10.00;99.90;;;;;;5090777;28;20048;-81
2021/12/01 03:44:38;;;;;;;5.53;3.55;;;9.90;99.90;;;;;;5092115;28;20119;-81
2021/12/01 03:47:04;;;;;;;7.32;4.20;;;10.00;99.90;;;;;;5092075;28;20055;-82
2021/12/01 03:49:29;;;;;;;5.50;3.53;;;9.90;99.90;;;;;;5074690;28;20035;-81
2021/12/01 03:51:55;;;;;;;6.13;3.15;;;9.90;99.90;;;;;;5074547;28;20113;-82
2021/12/01 03:54:21;;;;;;;8.88;3.00;;;9.90;99.90;;;;;;5091692;28;20052;-82
2021/12/01 03:56:46;;;;;;;8.80;4.18;;;10.00;99.90;;;;;;5091438;28;20055;-82
2021/12/01 03:59:13;;;;;;;8.07;3.85;;;10.00;99.90;;;;;;5091629;28;20043;-83
2021/12/01 04:01:38;;;;;;;11.48;4.45;;;9.90;99.90;;;;;;5058123;28;20440;-82
2021/12/01 04:04:04;;;;;;;13.05;4.53;;;9.80;99.90;;;;;;5091879;28;20040;-83
2021/12/01 04:06:30;;;;;;;8.57;3.92;;;9.80;99.90;;;;;;5073974;28;20054;-82
2021/12/01 04:08:55;;;;;;;12.15;4.78;;;9.90;99.90;;;;;;5074222;28;20480;-82
2021/12/01 04:11:21;;;;;;;10.18;4.13;;;9.80;99.90;;;;;;5090250;28;20420;-83
2021/12/01 04:13:48;;;;;;;9.35;4.65;;;9.80;99.90;;;;;;5090586;28;20093;-81
2021/12/01 04:16:13;;;;;;;11.05;5.15;;;9.70;99.90;;;;;;5091264;28;20047;-82
2021/12/01 04:18:39;;;;;;;7.63;4.50;;;9.70;99.90;;;;;;5090642;28;20040;-82
2021/12/01 04:21:05;;;;;;;8.55;4.63;;;9.80;99.90;;;;;;5091715;28;20063;-83
2021/12/01 04:23:34;;;;;;;11.35;5.22;;;9.80;99.90;;;;;;5091495;28;20055;-82
2021/12/01 04:26:00;;;;;;;6.55;4.32;;;9.80;99.90;;;;;;5092028;28;20105;-82
2021/12/01 04:28:26;;;;;;;11.40;4.88;;;9.90;99.90;;;;;;5089864;28;20139;-83
2021/12/01 04:30:52;;;;;;;9.52;4.95;;;9.80;99.90;;;;;;5090588;28;20131;-83
2021/12/01 04:33:18;;;;;;;10.32;4.90;;;9.80;99.90;;;;;;5072870;28;20043;-81
2021/12/01 04:35:45;;;;;;;6.18;4.07;;;9.80;99.90;;;;;;5091272;28;20070;-82
2021/12/01 04:38:10;;;;;;;9.32;4.47;;;9.70;99.90;;;;;;5090219;28;20052;-82
2021/12/01 04:40:36;;;;;;;7.20;3.78;;;9.80;99.90;;;;;;5090173;28;20051;-81
2021/12/01 04:43:02;;;;;;;4.30;3.50;;;9.80;99.90;;;;;;5091544;28;20055;-82
2021/12/01 04:45:31;;;;;;;8.05;4.50;;;9.80;99.90;;;;;;5089511;28;20070;-81
2021/12/01 04:47:56;;;;;;;5.90;3.70;;;9.90;99.90;;;;;;5091354;28;20773;-82
2021/12/01 04:50:24;;;;;;;5.72;3.40;;;9.90;99.90;;;;;;5072911;28;20147;-81
2021/12/01 04:52:51;;;;;;;6.90;4.00;;;9.80;99.90;;;;;;5089986;28;20396;-81
2021/12/01 04:55:17;;;;;;;6.75;3.92;;;9.90;99.90;;;;;;5072976;28;20104;-81
2021/12/01 04:57:47;;;;;;;10.00;4.18;;;9.80;99.90;;;;;;5073309;28;20127;-82
2021/12/01 05:00:18;;;;;;;6.18;4.30;;;9.70;99.90;;;;;;5089229;28;20538;-82
2021/12/01 05:02:43;;;;;;;5.65;3.05;;;9.70;99.90;;;;;;5090057;28;20063;-82
2021/12/01 05:05:09;;;;;;;5.07;3.25;;;9.90;99.90;;;;;;5091093;28;20483;-82
2021/12/01 05:07:35;;;;;;;5.35;3.50;;;9.90;99.90;;;;;;5090729;28;20074;-81
2021/12/01 05:10:01;;;;;;;5.22;3.90;;;9.70;99.90;;;;;;5090132;28;20059;-81
2021/12/01 05:12:26;;;;;;;4.70;3.35;;;9.70;99.90;;;;;;5089245;28;20040;-82
2021/12/01 05:14:52;;;;;;;4.90;3.70;;;9.70;99.90;;;;;;5091130;28;20043;-82
2021/12/01 05:17:20;;;;;;;5.03;3.78;;;9.60;99.90;;;;;;5089162;28;20115;-81
2021/12/01 05:19:46;;;;;;;5.30;3.42;;;9.60;99.90;;;;;;5089701;28;20499;-81
2021/12/01 05:22:12;;;;;;;4.65;3.05;;;9.50;99.90;;;;;;5090580;28;20523;-81
2021/12/01 05:24:37;;;;;;;6.45;3.75;;;9.60;99.90;;;;;;5090756;28;20048;-82
2021/12/01 05:27:04;;;;;;;4.50;3.83;;;9.60;99.90;;;;;;5089778;28;20052;-81
2021/12/01 05:29:30;;;;;;;4.40;3.60;;;9.60;99.90;;;;;;5089929;28;20056;-81
2021/12/01 05:31:56;;;;;;;3.92;3.53;;;9.50;99.90;;;;;;5091170;28;20407;-82
2021/12/01 05:34:22;;;;;;;4.88;4.03;;;9.60;99.90;;;;;;5089994;28;20084;-83
2021/12/01 05:36:47;;;;;;;3.90;3.40;;;9.50;99.90;;;;;;5089801;28;20051;-82
2021/12/01 05:39:13;;;;;;;4.63;4.15;;;9.60;99.90;;;;;;5089977;28;20048;-81
2021/12/01 05:41:39;;;;;;;4.57;3.67;;;9.50;99.90;;;;;;5090493;28;20094;-82
2021/12/01 05:44:04;;;;;;;6.45;4.82;;;9.50;99.90;;;;;;5056394;28;20059;-82
2021/12/01 05:46:30;;;;;;;4.15;3.63;;;9.50;99.90;;;;;;5090727;28;20051;-82
2021/12/01 05:48:56;;;;;;;3.72;3.08;;;9.50;99.90;;;;;;5095113;28;20087;-83
2021/12/01 05:51:22;;;;;;;4.10;3.50;;;9.60;99.90;;;;;;5093188;28;20048;-82
2021/12/01 05:53:48;;;;;;;5.22;4.68;;;9.60;99.90;;;;;;5094891;28;20083;-82
2021/12/01 05:56:14;;;;;;;5.40;4.05;;;9.40;99.90;;;;;;5060191;28;20044;-81
2021/12/01 05:58:46;;;;;;;5.55;4.32;;;9.40;99.90;;;;;;5077888;28;20051;-81
2021/12/01 06:01:11;;;;;;;6.20;5.18;;;9.50;99.90;;;;;;5094681;28;20048;-81
2021/12/01 06:03:39;;;;;;;6.13;5.20;;;9.50;99.90;;;;;;5093762;28;20040;-82
2021/12/01 06:06:06;;;;;;;7.88;5.53;;;9.40;99.90;;;;;;5093421;28;20326;-82
2021/12/01 06:08:32;;;;;;;7.38;5.72;;;9.40;99.90;;;;;;5092876;28;20108;-82
2021/12/01 06:10:58;;;;;;;5.68;4.80;;;9.30;99.90;;;;;;5094546;28;20048;-82
2021/12/01 06:13:24;;;;;;;6.30;4.93;;;9.30;99.90;;;;;;5092283;28;20429;-82
2021/12/01 06:15:50;;;;;;;5.57;4.82;;;9.30;99.90;;;;;;5094268;28;20446;-82
2021/12/01 06:18:16;;;;;;;3.90;3.35;;;9.30;99.90;;;;;;5092708;28;20480;-83
2021/12/01 06:20:42;;;;;;;5.10;4.28;;;9.30;99.90;;;;;;5092942;28;20052;-83
2021/12/01 06:23:08;;;;;;;5.57;4.20;;;9.20;99.90;;;;;;5076206;28;20036;-82
2021/12/01 06:25:33;;;;;;;4.65;3.28;;;9.20;99.90;;;;;;5092265;28;20052;-82
2021/12/01 06:27:59;;;;;;;3.22;2.92;;;9.20;99.90;;;;;;5092672;28;20080;-82
2021/12/01 06:30:26;;;;;;;3.22;2.92;;;9.20;99.90;;;;;;5092420;28;20048;-81
2021/12/01 06:32:52;;;;;;;4.22;3.80;;;9.20;99.90;;;;;;5094006;28;20059;-81
2021/12/01 06:35:18;;;;;;;3.80;3.33;;;9.10;99.90;;;;;;5075968;28;20048;-81
2021/12/01 06:37:44;;;;;;;3.88;3.05;;;9.10;99.90;;;;;;5093214;28;20044;-81
2021/12/01 06:40:10;;;;;;;4.22;3.28;;;9.10;99.90;;;;;;5092360;28;20488;-82
2021/12/01 06:42:36;;;;;;;4.80;3.20;;;9.20;99.90;;;;;;5075232;28;20067;-83
2021/12/01 06:45:03;;;;;;;4.13;3.42;;;9.10;99.90;;;;;;5093813;28;20487;-83
2021/12/01 06:47:29;;;;;;;3.97;3.53;;;9.00;99.90;;;;;;5075225;28;20048;-83
2021/12/01 06:49:55;;;;;;;4.72;3.55;;;9.00;99.90;;;;;;5075397;28;20403;-85
2021/12/01 06:52:20;;;;;;;4.97;3.22;;;9.10;99.90;;;;;;5075709;28;20040;-85
2021/12/01 06:54:46;;;;;;;4.55;3.42;;;9.00;99.90;;;;;;5093139;28;20040;-86
2021/12/01 06:57:12;;;;;;;3.60;3.22;;;9.30;99.90;;;;;;5093339;28;20051;-85
2021/12/01 06:59:37;;;;;;;4.85;3.38;;;9.00;99.90;;;;;;5092560;28;20138;-83
2021/12/01 07:02:03;;;;;;;3.53;3.10;;;9.00;99.90;;;;;;5093484;28;20403;-85
2021/12/01 07:04:30;;;;;;;3.70;3.40;;;9.10;99.90;;;;;;5091749;28;20484;-85
2021/12/01 07:06:58;;;;;;;4.20;3.78;;;9.00;99.90;;;;;;5092430;28;20045;-83
2021/12/01 07:09:25;;;;;;;4.88;3.33;;;9.10;99.90;;;;;;5093355;28;20040;-83
2021/12/01 07:11:50;;;;;;;3.45;3.15;;;8.90;99.90;;;;;;5074832;28;20044;-83
2021/12/01 07:14:16;;;;;;;4.22;3.50;;;8.80;99.90;;;;;;5075025;28;20093;-83
2021/12/01 07:16:42;;;;;;;5.15;4.63;;;8.90;99.90;;;;;;5092562;28;20063;-83
2021/12/01 07:19:07;;;;;;;5.13;4.10;;;8.90;99.90;;;;;;5058471;28;20052;-81
2021/12/01 07:21:35;;;;;;;3.88;3.47;;;8.90;99.90;;;;;;5092327;28;20678;-82
2021/12/01 07:24:04;;;;;;;4.70;3.70;;;8.90;99.90;;;;;;5074421;28;20132;-81
2021/12/01 07:26:30;;;;;;;4.05;3.65;;;8.90;99.90;;;;;;5091207;28;20502;-82
2021/12/01 07:28:57;;;;;;;4.15;3.75;;;9.00;99.90;;;;;;5063770;28;20048;-81
2021/12/01 07:31:22;;;;;;;4.10;3.17;;;9.00;99.90;;;;;;5071187;28;20086;-81
2021/12/01 07:33:48;;;;;;;3.45;2.83;;;8.90;99.90;;;;;;5053727;28;20880;-82
2021/12/01 07:36:15;;;;;;;4.28;3.47;;;8.90;99.90;;;;;;5054705;28;20048;-81
2021/12/01 07:38:40;;;;;;;4.28;2.92;;;8.90;99.90;;;;;;5053862;28;20136;-83
2021/12/01 07:41:06;;;;;;;3.13;2.83;;;8.90;99.90;;;;;;5072322;28;20152;-81
2021/12/01 07:43:32;;;;;;;5.40;4.22;;;9.00;99.90;;;;;;5071791;28;20059;-82
2021/12/01 07:46:00;;;;;;;6.18;4.35;;;8.90;99.90;;;;;;5071810;28;20065;-81
2021/12/01 07:48:27;;;;;;;4.97;3.78;;;8.90;99.90;;;;;;5070765;28;20055;-82
2021/12/01 07:50:52;;;;;;;5.28;4.43;;;9.00;99.90;;;;;;5053790;28;20253;-82
2021/12/01 07:53:18;;;;;;;5.68;4.80;;;9.10;99.90;;;;;;5070631;28;20496;-82
2021/12/01 07:55:44;;;;;;;6.13;5.28;;;9.00;99.90;;;;;;5070075;28;20049;-82
2021/12/01 07:58:09;;;;;;;4.53;3.35;;;8.90;99.90;;;;;;5071790;28;20040;-82
2021/12/01 08:00:35;;;;;;;4.45;3.80;;;8.90;99.90;;;;;;5053247;28;20131;-83
2021/12/01 08:03:01;;;;;;;5.53;4.88;;;9.00;99.90;;;;;;5071856;28;20095;-82
2021/12/01 08:05:26;;;;;;;5.20;4.30;;;9.00;99.90;;;;;;5071690;28;20047;-81
2021/12/01 08:07:53;;;;;;;4.82;4.22;;;8.90;99.90;;;;;;5053375;28;20076;-82
2021/12/01 08:10:18;;;;;;;6.68;5.53;;;9.00;99.90;;;;;;5070938;28;20052;-81
2021/12/01 08:12:44;;;;;;;6.20;5.57;;;9.00;99.90;;;;;;5069942;28;20414;-80
2021/12/01 08:15:10;;;;;;;9.45;5.20;;;8.90;99.90;;;;;;5071267;28;20055;-82
2021/12/01 08:17:36;;;;;;;7.13;4.63;;;8.90;99.90;;;;;;5069747;28;20044;-82
2021/12/01 08:20:03;;;;;;;7.75;6.05;;;9.00;99.90;;;;;;5053682;28;20057;-83
2021/12/01 08:22:29;;;;;;;6.57;5.60;;;9.00;99.90;;;;;;5070232;28;20175;-87
2021/12/01 08:24:57;;;;;;;6.22;5.45;;;8.90;99.90;;;;;;5053182;28;20056;-85
2021/12/01 08:27:23;;;;;;;7.35;5.50;;;9.60;99.90;;;;;;5054283;28;20131;-84
2021/12/01 08:29:49;;;;;;;5.57;5.03;;;9.10;99.90;;;;;;5052826;28;20445;-82
2021/12/01 08:32:15;;;;;;;6.65;5.43;;;9.00;99.90;;;;;;5071170;28;20190;-84
2021/12/01 08:34:40;;;;;;;5.88;5.28;;;9.10;99.90;;;;;;5069125;28;20052;-84
2021/12/01 08:37:08;;;;;;;6.90;5.18;;;9.10;99.90;;;;;;5070096;28;20135;-86
2021/12/01 08:39:34;;;;;;;8.35;5.18;;;9.10;99.90;;;;;;5070053;28;20052;-83
2021/12/01 08:42:00;;;;;;;7.72;5.15;;;9.10;99.90;;;;;;5052578;28;20052;-82
2021/12/01 08:44:26;;;;;;;9.35;5.55;;;9.20;99.90;;;;;;5069632;28;20047;-83
2021/12/01 08:46:51;;;;;;;7.28;5.30;;;8.60;99.90;;;;;;5052950;28;20071;-82
2021/12/01 08:49:17;;;;;;;6.10;4.30;;;9.00;99.90;;;;;;5071103;28;20044;-82
2021/12/01 08:51:43;;;;;;;7.63;4.78;;;9.10;99.90;;;;;;5069263;28;20051;-82
2021/12/01 08:54:13;;;;;;;6.85;4.55;;;9.20;99.90;;;;;;5069475;28;20051;-81
2021/12/01 08:56:42;;;;;;;7.85;4.63;;;9.10;99.90;;;;;;5071141;28;20056;-82
2021/12/01 08:59:07;;;;;;;7.88;4.97;;;9.10;99.90;;;;;;5069589;28;20095;-82
2021/12/01 09:01:33;;;;;;;8.35;4.63;;;9.10;99.90;;;;;;5070575;28;20472;-82
2021/12/01 09:04:00;;;;;;;6.45;4.38;;;9.10;99.90;;;;;;5070111;28;20076;-83
2021/12/01 09:06:26;;;;;;;4.97;2.95;;;9.10;99.90;;;;;;5070514;28;20507;-83
2021/12/01 09:08:52;;;;;;;10.25;2.88;;;9.00;99.90;;;;;;5035925;28;20475;-84
2021/12/01 09:11:17;;;;;;;9.38;2.95;;;9.00;99.90;;;;;;5069596;28;20084;-86
2021/12/01 09:13:43;;;;;;;13.95;2.95;;;9.00;99.90;;;;;;5070289;28;20040;-84
2021/12/01 09:16:09;;;;;;;13.98;3.25;;;9.00;99.90;;;;;;5069137;28;20451;-83
2021/12/01 09:18:34;;;;;;;11.88;3.22;;;9.00;99.90;;;;;;5052815;28;20040;-83
2021/12/01 09:21:01;;;;;;;11.38;3.00;;;8.90;99.90;;;;;;5069391;28;20519;-82
2021/12/01 09:23:27;;;;;;;12.98;2.40;;;8.90;99.90;;;;;;5070527;28;20051;-84
2021/12/01 09:25:52;;;;;;;13.60;2.65;;;8.90;99.90;;;;;;5068684;28;20056;-83
2021/12/01 09:28:20;;;;;;;13.65;2.33;;;9.00;99.90;;;;;;5068558;28;20067;-82
2021/12/01 09:30:45;;;;;;;10.77;2.55;;;9.00;99.90;;;;;;5068586;28;20056;-83
2021/12/01 09:33:11;;;;;;;9.68;2.33;;;9.60;99.90;;;;;;5052255;28;20057;-82
2021/12/01 09:35:37;;;;;;;10.05;2.03;;;8.90;99.90;;;;;;5052376;28;20053;-83
2021/12/01 09:38:03;;;;;;;12.35;2.80;;;8.50;99.90;;;;;;5051665;28;20059;-83
2021/12/01 09:40:28;;;;;;;14.43;2.50;;;9.00;99.90;;;;;;5070134;28;20049;-82
2021/12/01 09:42:55;;;;;;;7.85;1.85;;;8.90;99.90;;;;;;5068732;28;20594;-83
2021/12/01 09:45:23;;;;;;;10.48;1.90;;;8.90;99.90;;;;;;5068935;28;20056;-83
2021/12/01 09:47:49;;;;;;;14.95;2.60;;;8.80;99.90;;;;;;5035574;28;20064;-83
2021/12/01 09:50:15;;;;;;;11.77;2.20;;;8.70;99.90;;;;;;5070419;28;20122;-82
2021/12/01 09:52:41;;;;;;;15.40;2.30;;;8.60;99.90;;;;;;5068769;28;20480;-83
2021/12/01 09:55:07;;;;;;;15.55;2.40;;;8.60;99.90;;;;;;5069474;28;20661;-82
2021/12/01 09:57:33;;;;;;;10.30;1.85;;;8.60;99.90;;;;;;5068699;28;20131;-82
2021/12/01 09:59:59;;;;;;;8.30;1.60;;;8.60;99.90;;;;;;5051806;28;20569;-82
2021/12/01 10:02:25;;;;;;;10.23;2.13;;;8.60;99.90;;;;;;5052291;28;20430;-83
2021/12/01 10:04:51;;;;;;;10.77;1.88;;;8.70;99.90;;;;;;5069326;28;20134;-83
2021/12/01 10:07:17;;;;;;;10.77;1.60;;;8.70;99.90;;;;;;5035532;28;20486;-82
2021/12/01 10:09:44;;;;;;;11.57;2.05;;;8.70;99.90;;;;;;5069032;28;20136;-83
2021/12/01 10:12:10;;;;;;;9.82;1.77;;;8.70;99.90;;;;;;5051723;28;20174;-84
2021/12/01 10:14:35;;;;;;;9.75;1.88;;;8.70;99.90;;;;;;5069587;28;20036;-83
2021/12/01 10:17:01;;;;;;;7.45;1.55;;;8.70;99.90;;;;;;5068300;28;20052;-83
2021/12/01 10:19:28;;;;;;;9.13;1.42;;;8.70;99.90;;;;;;5068466;28;20040;-82
2021/12/01 10:21:54;;;;;;;10.68;1.90;;;8.70;99.90;;;;;;5069147;28;20048;-82
2021/12/01 10:24:21;;;;;;;5.22;1.58;;;8.70;99.90;;;;;;5051944;28;20106;-82
2021/12/01 10:26:51;;;;;;;12.25;2.17;;;8.70;99.90;;;;;;5068561;28;20044;-83
2021/12/01 10:29:18;;;;;;;14.85;2.35;;;8.80;99.90;;;;;;5067813;28;20082;-81
2021/12/01 10:31:57;;;;;;;14.63;1.98;;;8.90;99.90;;;;;;5068589;28;20055;-81
2021/12/01 10:34:26;;;;;;;13.25;2.13;;;8.70;99.90;;;;;;5072790;28;20118;-82
2021/12/01 10:37:14;;;;;;;11.43;1.88;;;8.80;99.90;;;;;;5071909;28;20052;-83
2021/12/01 10:39:45;;;;;;;10.90;1.70;;;8.90;99.90;;;;;;5073460;28;20070;-84
2021/12/01 10:42:14;;;;;;;17.45;2.67;;;9.00;99.90;;;;;;5055095;28;20045;-85
2021/12/01 10:44:54;;;;;;;15.18;2.60;;;8.90;99.90;;;;;;5055778;28;20037;-83
2021/12/01 10:47:20;;;;;;;11.57;2.15;;;8.90;99.90;;;;;;5071841;28;20055;-83
2021/12/01 10:49:47;;;;;;;12.68;1.95;;;8.80;99.90;;;;;;5073534;28;20097;-83
2021/12/01 10:52:32;;;;;;;13.15;1.80;;;8.90;99.90;;;;;;5055274;28;20056;-83
2021/12/01 10:55:09;;;;;;;17.20;2.20;;;9.00;99.90;;;;;;5054667;28;20048;-83
2021/12/01 10:57:40;;;;;;;6.03;2.33;;;8.80;99.90;;;;;;5073243;28;20052;-83
2021/12/01 11:00:17;;;;;;;9.55;1.77;;;8.80;99.90;;;;;;5055538;28;20370;-81
2021/12/01 11:02:43;;;;;;;9.20;2.28;;;8.90;99.90;;;;;;5073055;28;20515;-84
2021/12/01 11:05:08;;;;;;;10.90;2.03;;;8.70;99.90;;;;;;5054904;28;20048;-86
2021/12/01 11:07:34;;;;;;;8.82;2.05;;;8.70;99.90;;;;;;5073008;28;20075;-87
2021/12/01 11:10:20;;;;;;;12.35;2.20;;;8.60;99.90;;;;;;5072305;28;20048;-85
2021/12/01 11:13:06;;;;;;;7.88;2.00;;;8.50;99.90;;;;;;5054867;28;20513;-84
2021/12/01 11:15:37;;;;;;;11.30;1.65;;;8.70;99.90;;;;;;5072580;28;20097;-83
2021/12/01 11:18:03;;;;;;;8.95;2.30;;;9.10;99.90;;;;;;5071201;28;20049;-82
2021/12/01 11:20:35;;;;;;;7.20;3.00;;;8.50;99.90;;;;;;5055007;28;20044;-83
2021/12/01 11:23:30;;;;;;;8.85;1.88;;;8.50;99.90;;;;;;5071320;28;20075;-83
2021/12/01 11:26:16;;;;;;;11.25;1.80;;;8.60;99.90;;;;;;5064292;28;20154;-82
2021/12/01 11:28:49;;;;;;;15.90;2.17;;;8.60;99.90;;;;;;5054550;28;20087;-83
2021/12/01 11:31:25;;;;;;;14.98;2.63;;;8.60;99.90;;;;;;5070870;28;20044;-84
2021/12/01 11:33:55;;;;;;;12.95;1.83;;;8.70;99.90;;;;;;5054729;28;20044;-84
2021/12/01 11:36:26;;;;;;;17.20;3.78;;;8.80;99.90;;;;;;5072197;28;20109;-85
2021/12/01 11:38:54;;;;;;;14.05;2.53;;;8.70;99.90;;;;;;5071866;28;20204;-86
2021/12/01 11:41:20;;;;;;;12.25;2.30;;;8.60;99.90;;;;;;5072051;28;20048;-86
2021/12/01 11:43:46;;;;;;;11.88;2.45;;;8.60;99.90;;;;;;5072634;28;20126;-86
2021/12/01 11:46:11;;;;;;;16.88;3.13;;;8.50;99.90;;;;;;5071830;28;20055;-86
2021/12/01 11:48:48;;;;;;;17.40;2.78;;;8.50;99.90;;;;;;5071076;28;20048;-85
2021/12/01 11:51:38;;;;;;;16.98;2.90;;;8.60;99.90;;;;;;5055352;28;20079;-85
2021/12/01 11:54:21;;;;;;;19.38;3.05;;;8.60;99.90;;;;;;5071771;28;20515;-85
2021/12/01 11:57:06;;;;;;;18.25;2.97;;;8.60;99.90;;;;;;5055811;28;20123;-90
2021/12/01 11:59:43;;;;;;;11.57;2.72;;;8.70;99.90;;;;;;5054421;28;20131;-83
2021/12/01 12:02:18;;;;;;;11.07;2.40;;;8.60;99.90;;;;;;5070400;28;20063;-84
2021/12/01 12:04:45;;;;;;;13.30;3.05;;;8.50;99.90;;;;;;5070782;28;20055;-84
2021/12/01 12:07:11;;;;;;;15.40;2.53;;;8.50;99.90;;;;;;5053635;28;20052;-85
2021/12/01 12:09:38;;;;;;;17.77;3.83;;;8.50;99.90;;;;;;5070541;28;20103;-85
2021/12/01 12:12:17;;;;;;;17.35;3.22;;;8.40;99.90;;;;;;5069915;28;20489;-84
2021/12/01 12:14:46;;;;;;;13.95;2.63;;;8.30;99.90;;;;;;5070280;28;20044;-83
2021/12/01 12:17:22;;;;;;;19.95;3.55;;;8.30;99.90;;;;;;5070092;28;20052;-83
2021/12/01 12:20:10;;;;;;;20.45;2.83;;;8.20;99.90;;;;;;5054328;28;20055;-85
2021/12/01 12:25:02;;;;;;;18.70;3.80;;;8.00;99.90;;;;;;5071016;28;20075;-85
2021/12/01 12:27:31;;;;;;;23.55;3.65;;;8.20;99.90;;;;;;5053399;28;20083;-85
2021/12/01 12:29:58;;;;;;;22.88;4.55;;;8.40;99.90;;;;;;5069872;28;20350;-86
2021/12/01 12:32:29;;;;;;;22.42;3.50;;;8.40;99.90;;;;;;5069991;28;20455;-85
2021/12/01 12:34:55;;;;;;;23.15;3.83;;;8.50;99.90;;;;;;5054427;28;20049;-85
2021/12/01 12:37:22;;;;;;;19.20;4.43;;;8.60;99.90;;;;;;5037189;28;20056;-85
2021/12/01 12:39:48;;;;;;;16.77;3.45;;;8.40;99.90;;;;;;5054234;28;20056;-87
2021/12/01 12:42:14;;;;;;;18.70;4.18;;;8.60;99.90;;;;;;5071214;28;20127;-87
2021/12/01 12:44:50;;;;;;;15.45;3.20;;;8.50;99.90;;;;;;5072272;28;20106;-89
2021/12/01 12:47:24;;;;;;;20.25;4.93;;;8.50;99.90;;;;;;5069496;28;20040;-85
2021/12/01 12:50:02;;;;;;;18.97;3.17;;;8.50;99.90;;;;;;5070158;28;20049;-85
2021/12/01 12:52:29;;;;;;;12.13;2.42;;;8.40;99.90;;;;;;5054695;28;20444;-86
2021/12/01 12:54:57;;;;;;;15.63;2.15;;;8.40;99.90;;;;;;5070837;28;20040;-85
2021/12/01 12:57:25;;;;;;;13.52;2.80;;;8.40;99.90;;;;;;5072839;28;20497;-86
2021/12/01 13:00:17;;;;;;;10.90;2.40;;;8.50;99.90;;;;;;5090989;28;20089;-87